sensor_id;sensor_type;location;lat;lon;timestamp;P1;durP1;ratioP1;P2;durP2;ratioP2
15633;SDS011;14654;48.898;8.308;2022-11-03T00:01:00;4.67;;;3.53;;
15633;SDS011;14654;48.898;8.308;2022-11-03T00:03:26;4.77;;;3.07;;
15633;SDS011;14654;48.898;8.308;2022-11-03T00:05:52;3.27;;;2.97;;
15633;SDS011;14654;48.898;8.308;2022-11-03T00:08:30;4.17;;;3.23;;
15633;SDS011;14654;48.898;8.308;2022-11-03T00:11:08;5.50;;;3.20;;
15633;SDS011;14654;48.898;8.308;2022-11-03T00:13:36;4.63;;;3.50;;
15633;SDS011;14654;48.898;8.308;2022-11-03T00:16:03;5.33;;;3.83;;
15633;SDS011;14654;48.898;8.308;2022-11-03T00:18:29;5.87;;;4.00;;
15633;SDS011;14654;48.898;8.308;2022-11-03T00:20:55;4.37;;;3.63;;
15633;SDS011;14654;48.898;8.308;2022-11-03T00:23:31;5.47;;;3.87;;
15633;SDS011;14654;48.898;8.308;2022-11-03T00:26:06;5.23;;;3.53;;
15633;SDS011;14654;48.898;8.308;2022-11-03T00:28:31;7.23;;;4.07;;
15633;SDS011;14654;48.898;8.308;2022-11-03T00:30:58;3.77;;;3.13;;
15633;SDS011;14654;48.898;8.308;2022-11-03T00:33:31;8.10;;;3.50;;
15633;SDS011;14654;48.898;8.308;2022-11-03T00:35:57;7.50;;;3.87;;
15633;SDS011;14654;48.898;8.308;2022-11-03T00:38:24;9.23;;;3.73;;
15633;SDS011;14654;48.898;8.308;2022-11-03T00:40:52;7.90;;;4.20;;
15633;SDS011;14654;48.898;8.308;2022-11-03T00:43:19;6.53;;;3.53;;
15633;SDS011;14654;48.898;8.308;2022-11-03T00:45:45;6.07;;;3.87;;
15633;SDS011;14654;48.898;8.308;2022-11-03T00:48:11;6.47;;;4.27;;
15633;SDS011;14654;48.898;8.308;2022-11-03T00:51:04;11.27;;;4.57;;
15633;SDS011;14654;48.898;8.308;2022-11-03T00:53:41;7.07;;;4.60;;
15633;SDS011;14654;48.898;8.308;2022-11-03T00:56:12;6.40;;;4.03;;
15633;SDS011;14654;48.898;8.308;2022-11-03T00:58:42;10.87;;;4.10;;
15633;SDS011;14654;48.898;8.308;2022-11-03T01:01:12;13.57;;;4.33;;
15633;SDS011;14654;48.898;8.308;2022-11-03T01:03:40;9.47;;;3.93;;
15633;SDS011;14654;48.898;8.308;2022-11-03T01:06:27;9.03;;;4.03;;
15633;SDS011;14654;48.898;8.308;2022-11-03T01:09:11;10.63;;;4.20;;
15633;SDS011;14654;48.898;8.308;2022-11-03T01:11:36;7.37;;;3.63;;
15633;SDS011;14654;48.898;8.308;2022-11-03T01:14:11;13.87;;;4.43;;
15633;SDS011;14654;48.898;8.308;2022-11-03T01:16:38;6.43;;;3.40;;
15633;SDS011;14654;48.898;8.308;2022-11-03T01:19:04;6.50;;;3.60;;
15633;SDS011;14654;48.898;8.308;2022-11-03T01:21:29;9.97;;;4.17;;
15633;SDS011;14654;48.898;8.308;2022-11-03T01:23:55;11.77;;;4.20;;
15633;SDS011;14654;48.898;8.308;2022-11-03T01:26:21;12.30;;;4.07;;
15633;SDS011;14654;48.898;8.308;2022-11-03T01:28:46;8.30;;;4.13;;
15633;SDS011;14654;48.898;8.308;2022-11-03T01:31:17;6.73;;;3.70;;
15633;SDS011;14654;48.898;8.308;2022-11-03T01:33:48;6.20;;;3.80;;
15633;SDS011;14654;48.898;8.308;2022-11-03T01:36:15;6.97;;;4.13;;
15633;SDS011;14654;48.898;8.308;2022-11-03T01:38:40;8.97;;;4.60;;
15633;SDS011;14654;48.898;8.308;2022-11-03T01:41:07;11.73;;;3.70;;
15633;SDS011;14654;48.898;8.308;2022-11-03T01:43:37;11.03;;;3.83;;
15633;SDS011;14654;48.898;8.308;2022-11-03T01:48:35;8.70;;;4.47;;
15633;SDS011;14654;48.898;8.308;2022-11-03T01:51:07;10.70;;;3.83;;
15633;SDS011;14654;48.898;8.308;2022-11-03T01:53:36;6.80;;;3.80;;
15633;SDS011;14654;48.898;8.308;2022-11-03T01:56:07;6.50;;;3.23;;
15633;SDS011;14654;48.898;8.308;2022-11-03T01:58:36;3.97;;;3.17;;
15633;SDS011;14654;48.898;8.308;2022-11-03T02:01:04;6.93;;;3.93;;
15633;SDS011;14654;48.898;8.308;2022-11-03T02:03:35;4.87;;;3.00;;
15633;SDS011;14654;48.898;8.308;2022-11-03T02:06:04;3.43;;;3.13;;
15633;SDS011;14654;48.898;8.308;2022-11-03T02:08:45;4.97;;;3.10;;
15633;SDS011;14654;48.898;8.308;2022-11-03T02:11:15;4.13;;;3.27;;
15633;SDS011;14654;48.898;8.308;2022-11-03T02:13:59;3.57;;;3.00;;
15633;SDS011;14654;48.898;8.308;2022-11-03T02:16:24;4.43;;;3.43;;
15633;SDS011;14654;48.898;8.308;2022-11-03T02:18:53;7.53;;;2.90;;
15633;SDS011;14654;48.898;8.308;2022-11-03T02:26:40;4.37;;;3.37;;
15633;SDS011;14654;48.898;8.308;2022-11-03T02:29:11;3.67;;;3.33;;
15633;SDS011;14654;48.898;8.308;2022-11-03T02:31:40;8.50;;;4.17;;
15633;SDS011;14654;48.898;8.308;2022-11-03T02:39:11;3.63;;;3.20;;
15633;SDS011;14654;48.898;8.308;2022-11-03T02:41:42;4.63;;;3.00;;
15633;SDS011;14654;48.898;8.308;2022-11-03T02:44:12;5.57;;;3.63;;
15633;SDS011;14654;48.898;8.308;2022-11-03T02:46:40;7.70;;;3.77;;
15633;SDS011;14654;48.898;8.308;2022-11-03T02:49:08;4.53;;;3.60;;
15633;SDS011;14654;48.898;8.308;2022-11-03T02:51:33;4.67;;;3.70;;
15633;SDS011;14654;48.898;8.308;2022-11-03T02:54:10;4.70;;;3.90;;
15633;SDS011;14654;48.898;8.308;2022-11-03T02:57:05;4.30;;;3.50;;
15633;SDS011;14654;48.898;8.308;2022-11-03T02:59:39;4.33;;;3.43;;
15633;SDS011;14654;48.898;8.308;2022-11-03T03:02:09;6.63;;;3.37;;
15633;SDS011;14654;48.898;8.308;2022-11-03T03:04:41;4.57;;;3.57;;
15633;SDS011;14654;48.898;8.308;2022-11-03T03:07:15;3.60;;;3.07;;
15633;SDS011;14654;48.898;8.308;2022-11-03T03:09:52;4.77;;;3.63;;
15633;SDS011;14654;48.898;8.308;2022-11-03T03:12:23;4.67;;;3.30;;
15633;SDS011;14654;48.898;8.308;2022-11-03T03:14:50;4.30;;;3.23;;
15633;SDS011;14654;48.898;8.308;2022-11-03T03:17:25;5.63;;;3.30;;
15633;SDS011;14654;48.898;8.308;2022-11-03T03:20:14;4.13;;;3.50;;
15633;SDS011;14654;48.898;8.308;2022-11-03T03:22:50;4.63;;;3.77;;
15633;SDS011;14654;48.898;8.308;2022-11-03T03:25:33;4.23;;;3.63;;
15633;SDS011;14654;48.898;8.308;2022-11-03T03:28:10;5.50;;;3.30;;
15633;SDS011;14654;48.898;8.308;2022-11-03T03:30:42;5.47;;;3.40;;
15633;SDS011;14654;48.898;8.308;2022-11-03T03:33:10;4.30;;;3.37;;
15633;SDS011;14654;48.898;8.308;2022-11-03T03:35:37;3.47;;;3.07;;
15633;SDS011;14654;48.898;8.308;2022-11-03T03:38:13;4.40;;;3.30;;
15633;SDS011;14654;48.898;8.308;2022-11-03T03:40:43;5.87;;;3.43;;
15633;SDS011;14654;48.898;8.308;2022-11-03T03:43:14;4.10;;;3.27;;
15633;SDS011;14654;48.898;8.308;2022-11-03T03:45:41;4.40;;;3.10;;
15633;SDS011;14654;48.898;8.308;2022-11-03T03:48:09;3.90;;;3.40;;
15633;SDS011;14654;48.898;8.308;2022-11-03T03:50:36;3.87;;;3.13;;
15633;SDS011;14654;48.898;8.308;2022-11-03T03:53:04;5.30;;;3.17;;
15633;SDS011;14654;48.898;8.308;2022-11-03T03:55:34;3.47;;;3.10;;
15633;SDS011;14654;48.898;8.308;2022-11-03T03:58:06;3.53;;;3.00;;
15633;SDS011;14654;48.898;8.308;2022-11-03T04:00:35;3.90;;;2.90;;
15633;SDS011;14654;48.898;8.308;2022-11-03T04:03:04;5.10;;;3.07;;
15633;SDS011;14654;48.898;8.308;2022-11-03T04:05:30;3.37;;;2.77;;
15633;SDS011;14654;48.898;8.308;2022-11-03T04:07:55;3.57;;;3.03;;
15633;SDS011;14654;48.898;8.308;2022-11-03T04:10:22;3.63;;;3.23;;
15633;SDS011;14654;48.898;8.308;2022-11-03T04:12:48;3.13;;;2.83;;
15633;SDS011;14654;48.898;8.308;2022-11-03T04:15:33;4.93;;;3.30;;
15633;SDS011;14654;48.898;8.308;2022-11-03T04:18:17;3.93;;;3.23;;
15633;SDS011;14654;48.898;8.308;2022-11-03T04:21:02;2.93;;;2.60;;
15633;SDS011;14654;48.898;8.308;2022-11-03T04:23:46;3.57;;;3.27;;
15633;SDS011;14654;48.898;8.308;2022-11-03T04:26:13;3.43;;;2.80;;
15633;SDS011;14654;48.898;8.308;2022-11-03T04:28:41;5.53;;;3.00;;
15633;SDS011;14654;48.898;8.308;2022-11-03T04:31:13;3.43;;;2.97;;
15633;SDS011;14654;48.898;8.308;2022-11-03T04:33:41;3.40;;;3.10;;
15633;SDS011;14654;48.898;8.308;2022-11-03T04:36:11;3.23;;;2.70;;
15633;SDS011;14654;48.898;8.308;2022-11-03T04:38:41;3.43;;;3.13;;
15633;SDS011;14654;48.898;8.308;2022-11-03T04:41:15;3.93;;;2.90;;
15633;SDS011;14654;48.898;8.308;2022-11-03T04:43:48;4.23;;;3.10;;
15633;SDS011;14654;48.898;8.308;2022-11-03T04:46:15;3.73;;;2.97;;
15633;SDS011;14654;48.898;8.308;2022-11-03T04:48:45;3.83;;;3.20;;
15633;SDS011;14654;48.898;8.308;2022-11-03T04:51:16;4.20;;;2.73;;
15633;SDS011;14654;48.898;8.308;2022-11-03T04:53:46;4.50;;;2.90;;
15633;SDS011;14654;48.898;8.308;2022-11-03T04:56:15;3.20;;;2.77;;
15633;SDS011;14654;48.898;8.308;2022-11-03T04:58:44;3.37;;;3.07;;
15633;SDS011;14654;48.898;8.308;2022-11-03T05:01:12;3.53;;;3.10;;
15633;SDS011;14654;48.898;8.308;2022-11-03T05:03:39;4.80;;;3.30;;
15633;SDS011;14654;48.898;8.308;2022-11-03T05:06:16;3.20;;;2.90;;
15633;SDS011;14654;48.898;8.308;2022-11-03T05:08:45;3.00;;;2.70;;
15633;SDS011;14654;48.898;8.308;2022-11-03T05:13:57;3.00;;;2.70;;
15633;SDS011;14654;48.898;8.308;2022-11-03T05:16:24;4.10;;;2.97;;
15633;SDS011;14654;48.898;8.308;2022-11-03T05:18:49;3.20;;;2.90;;
15633;SDS011;14654;48.898;8.308;2022-11-03T05:21:16;3.30;;;2.80;;
15633;SDS011;14654;48.898;8.308;2022-11-03T05:23:46;3.10;;;2.80;;
15633;SDS011;14654;48.898;8.308;2022-11-03T05:26:19;4.07;;;3.10;;
15633;SDS011;14654;48.898;8.308;2022-11-03T05:28:53;3.53;;;2.90;;
15633;SDS011;14654;48.898;8.308;2022-11-03T05:31:27;4.70;;;3.07;;
15633;SDS011;14654;48.898;8.308;2022-11-03T05:33:58;4.23;;;3.00;;
15633;SDS011;14654;48.898;8.308;2022-11-03T05:36:27;4.53;;;3.60;;
15633;SDS011;14654;48.898;8.308;2022-11-03T05:38:57;3.30;;;2.73;;
15633;SDS011;14654;48.898;8.308;2022-11-03T05:41:26;3.97;;;3.03;;
15633;SDS011;14654;48.898;8.308;2022-11-03T05:46:26;4.63;;;3.20;;
15633;SDS011;14654;48.898;8.308;2022-11-03T05:48:54;4.90;;;3.17;;
15633;SDS011;14654;48.898;8.308;2022-11-03T05:51:21;4.87;;;3.30;;
15633;SDS011;14654;48.898;8.308;2022-11-03T05:53:56;3.63;;;3.30;;
15633;SDS011;14654;48.898;8.308;2022-11-03T05:56:25;3.33;;;3.03;;
15633;SDS011;14654;48.898;8.308;2022-11-03T05:58:51;5.97;;;3.37;;
15633;SDS011;14654;48.898;8.308;2022-11-03T06:01:29;3.87;;;3.40;;
15633;SDS011;14654;48.898;8.308;2022-11-03T06:03:55;3.60;;;3.30;;
15633;SDS011;14654;48.898;8.308;2022-11-03T06:06:22;3.60;;;3.30;;
15633;SDS011;14654;48.898;8.308;2022-11-03T06:08:50;5.47;;;2.90;;
15633;SDS011;14654;48.898;8.308;2022-11-03T06:11:26;3.53;;;2.87;;
15633;SDS011;14654;48.898;8.308;2022-11-03T06:13:55;3.93;;;3.10;;
15633;SDS011;14654;48.898;8.308;2022-11-03T06:18:53;4.80;;;2.87;;
15633;SDS011;14654;48.898;8.308;2022-11-03T06:21:20;3.60;;;2.70;;
15633;SDS011;14654;48.898;8.308;2022-11-03T06:23:48;3.93;;;3.40;;
15633;SDS011;14654;48.898;8.308;2022-11-03T06:26:17;3.37;;;2.60;;
15633;SDS011;14654;48.898;8.308;2022-11-03T06:28:45;3.97;;;2.77;;
15633;SDS011;14654;48.898;8.308;2022-11-03T06:31:13;3.70;;;3.10;;
15633;SDS011;14654;48.898;8.308;2022-11-03T06:33:45;3.97;;;3.10;;
15633;SDS011;14654;48.898;8.308;2022-11-03T06:36:30;4.17;;;2.93;;
15633;SDS011;14654;48.898;8.308;2022-11-03T06:39:03;4.67;;;3.07;;
15633;SDS011;14654;48.898;8.308;2022-11-03T06:41:35;3.53;;;2.83;;
15633;SDS011;14654;48.898;8.308;2022-11-03T06:44:01;5.20;;;3.07;;
15633;SDS011;14654;48.898;8.308;2022-11-03T06:46:39;5.10;;;3.30;;
15633;SDS011;14654;48.898;8.308;2022-11-03T06:49:15;3.17;;;2.87;;
15633;SDS011;14654;48.898;8.308;2022-11-03T06:51:51;5.63;;;3.20;;
15633;SDS011;14654;48.898;8.308;2022-11-03T06:54:17;4.67;;;3.00;;
15633;SDS011;14654;48.898;8.308;2022-11-03T06:56:48;4.13;;;2.80;;
15633;SDS011;14654;48.898;8.308;2022-11-03T06:59:14;3.53;;;2.73;;
15633;SDS011;14654;48.898;8.308;2022-11-03T07:01:41;4.97;;;3.40;;
15633;SDS011;14654;48.898;8.308;2022-11-03T07:06:45;3.83;;;3.10;;
15633;SDS011;14654;48.898;8.308;2022-11-03T07:09:13;4.03;;;2.97;;
15633;SDS011;14654;48.898;8.308;2022-11-03T07:11:44;3.13;;;2.83;;
15633;SDS011;14654;48.898;8.308;2022-11-03T07:16:48;4.97;;;3.20;;
15633;SDS011;14654;48.898;8.308;2022-11-03T07:19:24;4.43;;;2.73;;
15633;SDS011;14654;48.898;8.308;2022-11-03T07:21:53;4.27;;;3.00;;
15633;SDS011;14654;48.898;8.308;2022-11-03T07:24:26;3.10;;;2.90;;
15633;SDS011;14654;48.898;8.308;2022-11-03T07:29:52;3.07;;;2.70;;
15633;SDS011;14654;48.898;8.308;2022-11-03T07:32:23;5.40;;;2.63;;
15633;SDS011;14654;48.898;8.308;2022-11-03T07:35:01;3.93;;;2.70;;
15633;SDS011;14654;48.898;8.308;2022-11-03T07:37:35;6.17;;;3.53;;
15633;SDS011;14654;48.898;8.308;2022-11-03T07:40:01;4.67;;;2.87;;
15633;SDS011;14654;48.898;8.308;2022-11-03T07:42:26;4.40;;;3.00;;
15633;SDS011;14654;48.898;8.308;2022-11-03T07:44:52;4.07;;;2.53;;
15633;SDS011;14654;48.898;8.308;2022-11-03T07:47:21;4.70;;;3.10;;
15633;SDS011;14654;48.898;8.308;2022-11-03T07:49:51;4.07;;;2.73;;
15633;SDS011;14654;48.898;8.308;2022-11-03T07:52:21;3.20;;;2.90;;
15633;SDS011;14654;48.898;8.308;2022-11-03T07:54:49;4.47;;;2.50;;
15633;SDS011;14654;48.898;8.308;2022-11-03T07:57:22;4.43;;;3.00;;
15633;SDS011;14654;48.898;8.308;2022-11-03T07:59:51;7.70;;;5.33;;
15633;SDS011;14654;48.898;8.308;2022-11-03T08:02:36;4.73;;;3.67;;
15633;SDS011;14654;48.898;8.308;2022-11-03T08:05:11;5.57;;;3.07;;
15633;SDS011;14654;48.898;8.308;2022-11-03T08:07:37;4.63;;;3.00;;
15633;SDS011;14654;48.898;8.308;2022-11-03T08:10:02;4.77;;;2.80;;
15633;SDS011;14654;48.898;8.308;2022-11-03T08:12:28;4.83;;;3.00;;
15633;SDS011;14654;48.898;8.308;2022-11-03T08:14:54;3.93;;;3.10;;
15633;SDS011;14654;48.898;8.308;2022-11-03T08:17:19;3.20;;;2.53;;
15633;SDS011;14654;48.898;8.308;2022-11-03T08:19:44;4.70;;;3.20;;
15633;SDS011;14654;48.898;8.308;2022-11-03T08:22:10;4.03;;;2.80;;
15633;SDS011;14654;48.898;8.308;2022-11-03T08:24:35;3.13;;;2.37;;
15633;SDS011;14654;48.898;8.308;2022-11-03T08:27:00;3.80;;;2.87;;
15633;SDS011;14654;48.898;8.308;2022-11-03T08:29:27;3.03;;;2.70;;
15633;SDS011;14654;48.898;8.308;2022-11-03T08:31:53;3.83;;;2.70;;
15633;SDS011;14654;48.898;8.308;2022-11-03T08:34:18;4.60;;;2.60;;
15633;SDS011;14654;48.898;8.308;2022-11-03T08:36:44;2.97;;;2.30;;
15633;SDS011;14654;48.898;8.308;2022-11-03T08:39:09;4.20;;;2.63;;
15633;SDS011;14654;48.898;8.308;2022-11-03T08:41:35;3.97;;;2.40;;
15633;SDS011;14654;48.898;8.308;2022-11-03T08:44:00;3.30;;;2.40;;
15633;SDS011;14654;48.898;8.308;2022-11-03T08:46:26;4.37;;;3.03;;
15633;SDS011;14654;48.898;8.308;2022-11-03T08:48:51;4.63;;;3.03;;
15633;SDS011;14654;48.898;8.308;2022-11-03T08:51:17;4.53;;;2.80;;
15633;SDS011;14654;48.898;8.308;2022-11-03T08:53:42;4.23;;;2.93;;
15633;SDS011;14654;48.898;8.308;2022-11-03T08:56:08;3.43;;;3.10;;
15633;SDS011;14654;48.898;8.308;2022-11-03T08:58:34;5.53;;;3.47;;
15633;SDS011;14654;48.898;8.308;2022-11-03T09:00:59;4.90;;;3.43;;
15633;SDS011;14654;48.898;8.308;2022-11-03T09:03:24;5.93;;;2.73;;
15633;SDS011;14654;48.898;8.308;2022-11-03T09:05:50;3.73;;;2.87;;
15633;SDS011;14654;48.898;8.308;2022-11-03T09:08:15;4.93;;;2.60;;
15633;SDS011;14654;48.898;8.308;2022-11-03T09:10:41;3.00;;;2.20;;
15633;SDS011;14654;48.898;8.308;2022-11-03T09:13:06;3.40;;;2.20;;
15633;SDS011;14654;48.898;8.308;2022-11-03T09:15:32;4.73;;;2.50;;
15633;SDS011;14654;48.898;8.308;2022-11-03T09:17:57;3.40;;;2.70;;
15633;SDS011;14654;48.898;8.308;2022-11-03T09:20:22;3.73;;;2.50;;
15633;SDS011;14654;48.898;8.308;2022-11-03T09:22:48;2.73;;;2.27;;
15633;SDS011;14654;48.898;8.308;2022-11-03T09:25:14;3.33;;;2.53;;
15633;SDS011;14654;48.898;8.308;2022-11-03T09:27:40;4.80;;;2.93;;
15633;SDS011;14654;48.898;8.308;2022-11-03T09:30:05;3.10;;;2.53;;
15633;SDS011;14654;48.898;8.308;2022-11-03T09:32:31;3.63;;;2.43;;
15633;SDS011;14654;48.898;8.308;2022-11-03T09:34:57;4.33;;;2.50;;
15633;SDS011;14654;48.898;8.308;2022-11-03T09:37:22;4.23;;;2.87;;
15633;SDS011;14654;48.898;8.308;2022-11-03T09:39:48;4.03;;;2.70;;
15633;SDS011;14654;48.898;8.308;2022-11-03T09:42:13;3.87;;;2.80;;
15633;SDS011;14654;48.898;8.308;2022-11-03T09:44:40;3.70;;;2.50;;
15633;SDS011;14654;48.898;8.308;2022-11-03T09:47:06;4.80;;;3.20;;
15633;SDS011;14654;48.898;8.308;2022-11-03T09:49:32;3.93;;;2.90;;
15633;SDS011;14654;48.898;8.308;2022-11-03T09:51:59;4.83;;;2.90;;
15633;SDS011;14654;48.898;8.308;2022-11-03T09:54:27;5.27;;;3.00;;
15633;SDS011;14654;48.898;8.308;2022-11-03T09:56:55;4.03;;;3.03;;
15633;SDS011;14654;48.898;8.308;2022-11-03T09:59:22;3.03;;;2.70;;
15633;SDS011;14654;48.898;8.308;2022-11-03T10:01:48;4.10;;;3.13;;
15633;SDS011;14654;48.898;8.308;2022-11-03T10:04:18;4.20;;;3.00;;
15633;SDS011;14654;48.898;8.308;2022-11-03T10:06:49;4.53;;;3.43;;
15633;SDS011;14654;48.898;8.308;2022-11-03T10:09:15;6.60;;;3.87;;
15633;SDS011;14654;48.898;8.308;2022-11-03T10:11:43;4.47;;;3.40;;
15633;SDS011;14654;48.898;8.308;2022-11-03T10:14:10;5.47;;;4.17;;
15633;SDS011;14654;48.898;8.308;2022-11-03T10:16:38;4.63;;;3.23;;
15633;SDS011;14654;48.898;8.308;2022-11-03T10:19:08;5.93;;;3.87;;
15633;SDS011;14654;48.898;8.308;2022-11-03T10:21:35;4.00;;;3.60;;
15633;SDS011;14654;48.898;8.308;2022-11-03T10:24:02;4.67;;;4.00;;
15633;SDS011;14654;48.898;8.308;2022-11-03T10:26:28;3.90;;;3.50;;
15633;SDS011;14654;48.898;8.308;2022-11-03T10:29:00;4.43;;;3.60;;
15633;SDS011;14654;48.898;8.308;2022-11-03T10:31:40;4.47;;;3.57;;
15633;SDS011;14654;48.898;8.308;2022-11-03T10:37:17;3.70;;;3.20;;
15633;SDS011;14654;48.898;8.308;2022-11-03T10:39:44;6.00;;;3.40;;
15633;SDS011;14654;48.898;8.308;2022-11-03T10:42:24;4.80;;;3.33;;
15633;SDS011;14654;48.898;8.308;2022-11-03T10:44:54;3.93;;;3.20;;
15633;SDS011;14654;48.898;8.308;2022-11-03T10:47:34;3.77;;;2.70;;
15633;SDS011;14654;48.898;8.308;2022-11-03T10:50:04;3.63;;;2.77;;
15633;SDS011;14654;48.898;8.308;2022-11-03T10:52:39;3.87;;;2.90;;
15633;SDS011;14654;48.898;8.308;2022-11-03T10:55:04;3.43;;;2.73;;
15633;SDS011;14654;48.898;8.308;2022-11-03T10:57:30;4.43;;;2.90;;
15633;SDS011;14654;48.898;8.308;2022-11-03T10:59:56;3.20;;;2.70;;
15633;SDS011;14654;48.898;8.308;2022-11-03T11:02:25;3.50;;;2.70;;
15633;SDS011;14654;48.898;8.308;2022-11-03T11:05:00;5.03;;;3.87;;
15633;SDS011;14654;48.898;8.308;2022-11-03T11:07:33;3.73;;;2.97;;
15633;SDS011;14654;48.898;8.308;2022-11-03T11:12:32;4.13;;;3.20;;
15633;SDS011;14654;48.898;8.308;2022-11-03T11:14:59;4.67;;;3.00;;
15633;SDS011;14654;48.898;8.308;2022-11-03T11:31:57;5.47;;;3.40;;
15633;SDS011;14654;48.898;8.308;2022-11-03T11:49:48;3.77;;;2.90;;
15633;SDS011;14654;48.898;8.308;2022-11-03T11:52:24;3.43;;;2.73;;
15633;SDS011;14654;48.898;8.308;2022-11-03T11:54:51;4.50;;;2.97;;
15633;SDS011;14654;48.898;8.308;2022-11-03T11:57:17;4.90;;;3.20;;
15633;SDS011;14654;48.898;8.308;2022-11-03T11:59:45;4.13;;;3.07;;
15633;SDS011;14654;48.898;8.308;2022-11-03T12:02:23;3.70;;;3.37;;
15633;SDS011;14654;48.898;8.308;2022-11-03T12:04:53;3.40;;;2.90;;
15633;SDS011;14654;48.898;8.308;2022-11-03T12:07:34;4.27;;;3.27;;
15633;SDS011;14654;48.898;8.308;2022-11-03T12:10:07;3.63;;;3.17;;
15633;SDS011;14654;48.898;8.308;2022-11-03T12:12:33;4.50;;;3.13;;
15633;SDS011;14654;48.898;8.308;2022-11-03T12:14:59;4.30;;;2.90;;
15633;SDS011;14654;48.898;8.308;2022-11-03T12:19:52;6.60;;;3.27;;
15633;SDS011;14654;48.898;8.308;2022-11-03T12:29:54;3.00;;;2.70;;
15633;SDS011;14654;48.898;8.308;2022-11-03T12:32:20;5.40;;;2.83;;
15633;SDS011;14654;48.898;8.308;2022-11-03T12:34:46;5.47;;;3.20;;
15633;SDS011;14654;48.898;8.308;2022-11-03T12:37:11;5.67;;;2.80;;
15633;SDS011;14654;48.898;8.308;2022-11-03T12:39:37;6.23;;;2.90;;
15633;SDS011;14654;48.898;8.308;2022-11-03T12:42:03;3.50;;;2.83;;
15633;SDS011;14654;48.898;8.308;2022-11-03T12:44:29;5.00;;;3.17;;
15633;SDS011;14654;48.898;8.308;2022-11-03T12:46:55;5.20;;;2.50;;
15633;SDS011;14654;48.898;8.308;2022-11-03T12:49:20;5.83;;;2.87;;
15633;SDS011;14654;48.898;8.308;2022-11-03T12:51:46;4.77;;;2.70;;
15633;SDS011;14654;48.898;8.308;2022-11-03T12:54:11;4.03;;;2.83;;
15633;SDS011;14654;48.898;8.308;2022-11-03T12:56:37;6.27;;;3.23;;
15633;SDS011;14654;48.898;8.308;2022-11-03T12:59:02;6.23;;;3.50;;
15633;SDS011;14654;48.898;8.308;2022-11-03T13:01:29;6.07;;;3.00;;
15633;SDS011;14654;48.898;8.308;2022-11-03T13:03:54;7.33;;;3.23;;
15633;SDS011;14654;48.898;8.308;2022-11-03T13:06:20;4.83;;;3.07;;
15633;SDS011;14654;48.898;8.308;2022-11-03T13:08:45;3.47;;;3.00;;
15633;SDS011;14654;48.898;8.308;2022-11-03T13:11:11;4.10;;;3.30;;
15633;SDS011;14654;48.898;8.308;2022-11-03T13:13:55;5.20;;;3.77;;
15633;SDS011;14654;48.898;8.308;2022-11-03T13:16:20;6.77;;;4.17;;
15633;SDS011;14654;48.898;8.308;2022-11-03T13:18:46;5.80;;;4.60;;
15633;SDS011;14654;48.898;8.308;2022-11-03T13:21:11;7.87;;;4.57;;
15633;SDS011;14654;48.898;8.308;2022-11-03T13:23:37;6.20;;;4.47;;
15633;SDS011;14654;48.898;8.308;2022-11-03T13:26:03;6.23;;;4.60;;
15633;SDS011;14654;48.898;8.308;2022-11-03T13:28:29;7.57;;;4.30;;
15633;SDS011;14654;48.898;8.308;2022-11-03T13:30:54;5.30;;;3.67;;
15633;SDS011;14654;48.898;8.308;2022-11-03T13:33:19;5.63;;;3.50;;
15633;SDS011;14654;48.898;8.308;2022-11-03T13:35:45;5.07;;;3.50;;
15633;SDS011;14654;48.898;8.308;2022-11-03T13:38:10;5.23;;;3.37;;
15633;SDS011;14654;48.898;8.308;2022-11-03T13:40:35;5.47;;;3.87;;
15633;SDS011;14654;48.898;8.308;2022-11-03T13:43:01;5.10;;;3.37;;
15633;SDS011;14654;48.898;8.308;2022-11-03T13:45:26;6.63;;;3.63;;
15633;SDS011;14654;48.898;8.308;2022-11-03T13:47:52;6.53;;;3.90;;
15633;SDS011;14654;48.898;8.308;2022-11-03T13:50:17;7.83;;;3.93;;
15633;SDS011;14654;48.898;8.308;2022-11-03T13:52:43;6.17;;;4.20;;
15633;SDS011;14654;48.898;8.308;2022-11-03T13:55:09;5.37;;;3.67;;
15633;SDS011;14654;48.898;8.308;2022-11-03T13:57:36;6.73;;;3.90;;
15633;SDS011;14654;48.898;8.308;2022-11-03T14:00:05;10.93;;;5.07;;
15633;SDS011;14654;48.898;8.308;2022-11-03T14:02:32;6.93;;;4.80;;
15633;SDS011;14654;48.898;8.308;2022-11-03T14:04:57;5.80;;;3.87;;
15633;SDS011;14654;48.898;8.308;2022-11-03T14:07:22;8.60;;;4.57;;
15633;SDS011;14654;48.898;8.308;2022-11-03T14:09:48;8.13;;;4.40;;
15633;SDS011;14654;48.898;8.308;2022-11-03T14:12:13;8.93;;;4.83;;
15633;SDS011;14654;48.898;8.308;2022-11-03T14:17:22;7.37;;;4.33;;
15633;SDS011;14654;48.898;8.308;2022-11-03T14:19:48;7.83;;;4.07;;
15633;SDS011;14654;48.898;8.308;2022-11-03T14:22:14;7.87;;;4.40;;
15633;SDS011;14654;48.898;8.308;2022-11-03T14:24:39;7.33;;;3.77;;
15633;SDS011;14654;48.898;8.308;2022-11-03T14:27:05;6.10;;;4.00;;
15633;SDS011;14654;48.898;8.308;2022-11-03T14:29:30;8.50;;;4.57;;
15633;SDS011;14654;48.898;8.308;2022-11-03T14:31:56;6.13;;;4.03;;
15633;SDS011;14654;48.898;8.308;2022-11-03T14:34:21;6.50;;;3.93;;
15633;SDS011;14654;48.898;8.308;2022-11-03T14:36:46;5.67;;;3.50;;
15633;SDS011;14654;48.898;8.308;2022-11-03T14:39:12;10.37;;;4.13;;
15633;SDS011;14654;48.898;8.308;2022-11-03T14:41:37;5.60;;;3.60;;
15633;SDS011;14654;48.898;8.308;2022-11-03T14:44:21;5.47;;;3.80;;
15633;SDS011;14654;48.898;8.308;2022-11-03T14:46:46;6.77;;;4.00;;
15633;SDS011;14654;48.898;8.308;2022-11-03T14:49:12;7.07;;;4.10;;
15633;SDS011;14654;48.898;8.308;2022-11-03T14:51:37;3.93;;;3.53;;
15633;SDS011;14654;48.898;8.308;2022-11-03T14:54:02;5.57;;;3.87;;
15633;SDS011;14654;48.898;8.308;2022-11-03T14:56:28;8.33;;;3.87;;
15633;SDS011;14654;48.898;8.308;2022-11-03T14:58:53;4.53;;;3.50;;
15633;SDS011;14654;48.898;8.308;2022-11-03T15:01:19;4.93;;;3.63;;
15633;SDS011;14654;48.898;8.308;2022-11-03T15:03:44;4.47;;;3.23;;
15633;SDS011;14654;48.898;8.308;2022-11-03T15:06:10;5.43;;;3.70;;
15633;SDS011;14654;48.898;8.308;2022-11-03T15:08:36;6.40;;;4.20;;
15633;SDS011;14654;48.898;8.308;2022-11-03T15:11:05;4.40;;;3.60;;
15633;SDS011;14654;48.898;8.308;2022-11-03T15:13:34;5.77;;;3.90;;
15633;SDS011;14654;48.898;8.308;2022-11-03T15:16:01;7.50;;;4.00;;
15633;SDS011;14654;48.898;8.308;2022-11-03T15:18:27;5.87;;;3.63;;
15633;SDS011;14654;48.898;8.308;2022-11-03T15:20:52;4.70;;;3.70;;
15633;SDS011;14654;48.898;8.308;2022-11-03T15:23:18;7.73;;;5.27;;
15633;SDS011;14654;48.898;8.308;2022-11-03T15:25:43;6.97;;;5.40;;
15633;SDS011;14654;48.898;8.308;2022-11-03T15:28:09;6.03;;;4.80;;
15633;SDS011;14654;48.898;8.308;2022-11-03T15:30:35;7.03;;;4.60;;
15633;SDS011;14654;48.898;8.308;2022-11-03T15:33:01;7.80;;;4.40;;
15633;SDS011;14654;48.898;8.308;2022-11-03T15:35:26;5.97;;;4.53;;
15633;SDS011;14654;48.898;8.308;2022-11-03T15:37:51;6.53;;;4.53;;
15633;SDS011;14654;48.898;8.308;2022-11-03T15:40:17;5.03;;;4.27;;
15633;SDS011;14654;48.898;8.308;2022-11-03T15:42:43;6.17;;;4.70;;
15633;SDS011;14654;48.898;8.308;2022-11-03T15:45:09;5.43;;;4.20;;
15633;SDS011;14654;48.898;8.308;2022-11-03T15:47:37;4.33;;;3.93;;
15633;SDS011;14654;48.898;8.308;2022-11-03T15:50:03;4.30;;;3.80;;
15633;SDS011;14654;48.898;8.308;2022-11-03T15:52:29;5.33;;;4.47;;
15633;SDS011;14654;48.898;8.308;2022-11-03T15:54:54;7.30;;;4.63;;
15633;SDS011;14654;48.898;8.308;2022-11-03T15:57:20;8.07;;;4.53;;
15633;SDS011;14654;48.898;8.308;2022-11-03T15:59:45;7.23;;;5.10;;
15633;SDS011;14654;48.898;8.308;2022-11-03T16:02:10;6.97;;;4.70;;
15633;SDS011;14654;48.898;8.308;2022-11-03T16:04:36;6.30;;;4.53;;
15633;SDS011;14654;48.898;8.308;2022-11-03T16:07:01;6.97;;;5.13;;
15633;SDS011;14654;48.898;8.308;2022-11-03T16:09:27;5.90;;;4.60;;
15633;SDS011;14654;48.898;8.308;2022-11-03T16:11:53;6.07;;;4.80;;
15633;SDS011;14654;48.898;8.308;2022-11-03T16:14:18;5.43;;;4.80;;